createdAt,value
2023-12-17T00:01:17.547Z,102890.88
2023-12-17T00:03:44.876Z,102898.50
2023-12-17T00:06:12.301Z,102902.00
2023-12-17T00:08:39.601Z,102907.41
2023-12-17T00:11:06.868Z,102909.03
2023-12-17T00:13:36.075Z,102908.91
2023-12-17T00:16:04.296Z,102910.34
2023-12-17T00:18:31.553Z,102920.97
2023-12-17T00:20:58.750Z,102922.03
2023-12-17T00:23:25.888Z,102909.28
2023-12-17T00:25:53.352Z,102917.72
2023-12-17T00:28:20.441Z,102911.56
2023-12-17T00:30:47.668Z,102907.63
2023-12-17T00:33:16.159Z,102893.19
2023-12-17T00:35:43.884Z,102893.69
2023-12-17T00:38:11.010Z,102884.59
2023-12-17T00:40:38.267Z,102879.50
2023-12-17T00:43:23.405Z,102890.75
2023-12-17T00:45:50.705Z,102889.44
2023-12-17T00:48:17.889Z,102887.25
2023-12-17T00:50:45.372Z,102891.13
2023-12-17T00:53:15.195Z,102883.66
2023-12-17T00:55:43.031Z,102886.94
2023-12-17T00:58:10.066Z,102881.06
2023-12-17T01:00:45.493Z,102881.88
2023-12-17T01:03:20.040Z,102883.75
2023-12-17T01:05:47.246Z,102888.56
2023-12-17T01:08:14.434Z,102897.25
2023-12-17T01:10:41.728Z,102892.72
2023-12-17T01:13:08.937Z,102889.56
2023-12-17T01:15:36.113Z,102883.00
2023-12-17T01:18:03.692Z,102883.00
2023-12-17T01:20:31.017Z,102891.44
2023-12-17T01:22:58.089Z,102890.38
2023-12-17T01:25:25.150Z,102900.09
2023-12-17T01:27:52.245Z,102914.63
2023-12-17T01:30:19.514Z,102908.25
2023-12-17T01:32:46.769Z,102922.22
2023-12-17T01:35:14.000Z,102927.47
2023-12-17T01:37:41.227Z,102919.69
2023-12-17T01:40:09.452Z,102909.50
2023-12-17T01:42:36.807Z,102907.91
2023-12-17T01:45:04.452Z,102894.41
2023-12-17T01:47:31.648Z,102899.56
2023-12-17T01:49:58.894Z,102913.88
2023-12-17T01:52:26.005Z,102912.00
2023-12-17T01:54:53.200Z,102910.13
2023-12-17T01:57:20.339Z,102910.94
2023-12-17T01:59:48.251Z,102916.09
2023-12-17T02:02:16.925Z,102919.28
2023-12-17T02:04:44.804Z,102924.50
2023-12-17T02:07:11.932Z,102928.84
2023-12-17T02:09:39.210Z,102928.03
2023-12-17T02:12:06.525Z,102928.53
2023-12-17T02:14:33.630Z,102934.56
2023-12-17T02:17:00.825Z,102933.50
2023-12-17T02:19:34.699Z,102922.72
2023-12-17T02:22:01.788Z,102916.50
2023-12-17T02:24:28.896Z,102925.41
2023-12-17T02:26:56.179Z,102923.13
2023-12-17T02:29:23.283Z,102920.56
2023-12-17T02:31:50.406Z,102923.53
2023-12-17T02:34:18.700Z,102923.78
2023-12-17T02:36:46.000Z,102935.63
2023-12-17T02:39:13.095Z,102946.25
2023-12-17T02:41:40.354Z,102929.25
2023-12-17T02:44:07.522Z,102942.50
2023-12-17T02:46:35.089Z,102935.94
2023-12-17T02:49:02.278Z,102930.88
2023-12-17T02:51:30.408Z,102927.72
2023-12-17T02:53:57.504Z,102932.06
2023-12-17T02:56:24.632Z,102927.13
2023-12-17T02:58:51.714Z,102915.53
2023-12-17T03:01:21.545Z,102925.84
2023-12-17T03:03:48.736Z,102929.88
2023-12-17T03:06:15.867Z,102936.31
2023-12-17T03:08:43.031Z,102938.25
2023-12-17T03:11:10.214Z,102930.06
2023-12-17T03:13:37.277Z,102931.50
2023-12-17T03:16:04.591Z,102927.19
2023-12-17T03:18:31.994Z,102944.19
2023-12-17T03:20:59.289Z,102926.22
2023-12-17T03:23:26.457Z,102926.13
2023-12-17T03:25:54.417Z,102926.69
2023-12-17T03:28:22.241Z,102926.13
2023-12-17T03:30:49.405Z,102915.88
2023-12-17T03:33:16.835Z,102905.06
2023-12-17T03:35:44.097Z,102902.91
2023-12-17T03:38:11.611Z,102902.38
2023-12-17T03:40:39.307Z,102890.66
2023-12-17T03:43:06.371Z,102888.88
2023-12-17T03:45:34.903Z,102881.84
2023-12-17T03:48:02.819Z,102887.25
2023-12-17T03:50:29.976Z,102937.44
2023-12-17T03:52:57.048Z,102903.91
2023-12-17T03:55:24.126Z,102934.22
2023-12-17T03:57:51.298Z,102914.75
2023-12-17T04:00:18.566Z,102920.44
2023-12-17T04:02:45.955Z,102924.59
2023-12-17T04:05:13.212Z,102908.81
2023-12-17T04:07:40.513Z,102914.22
2023-12-17T04:10:08.092Z,102915.75
2023-12-17T04:12:35.146Z,102914.22
2023-12-17T04:15:02.326Z,102903.44
2023-12-17T04:17:30.655Z,102917.97
2023-12-17T04:19:57.808Z,102921.88
2023-12-17T04:22:24.870Z,102918.84
2023-12-17T04:24:51.978Z,102932.34
2023-12-17T04:27:19.155Z,102941.69
2023-12-17T04:29:46.948Z,102942.06
2023-12-17T04:32:14.231Z,102943.72
2023-12-17T04:34:41.454Z,102940.38
2023-12-17T04:37:08.527Z,102945.81
2023-12-17T04:39:35.615Z,102959.50
2023-12-17T04:42:02.687Z,102944.13
2023-12-17T04:44:29.728Z,102950.34
2023-12-17T04:46:58.829Z,102958.69
2023-12-17T04:49:25.947Z,102933.63
2023-12-17T04:51:53.198Z,102945.53
2023-12-17T04:54:20.280Z,102946.03
2023-12-17T04:56:47.393Z,102950.16
2023-12-17T04:59:14.479Z,102954.44
2023-12-17T05:01:41.567Z,102950.25
2023-12-17T05:04:08.712Z,102952.63
2023-12-17T05:06:35.885Z,102951.81
2023-12-17T05:09:03.060Z,102946.25
2023-12-17T05:11:30.154Z,102942.31
2023-12-17T05:13:57.205Z,102947.22
2023-12-17T05:16:24.354Z,102948.88
2023-12-17T05:18:51.991Z,102942.31
2023-12-17T05:21:21.056Z,102956.84
2023-12-17T05:23:48.470Z,102950.50
2023-12-17T05:26:15.581Z,102958.84
2023-12-17T05:28:42.692Z,102965.53
2023-12-17T05:31:11.115Z,102959.75
2023-12-17T05:33:38.384Z,102953.34
2023-12-17T05:36:06.108Z,102957.63
2023-12-17T05:38:33.989Z,102960.31
2023-12-17T05:41:01.076Z,102960.81
2023-12-17T05:43:28.186Z,102949.53
2023-12-17T05:45:58.953Z,102964.91
2023-12-17T05:48:26.659Z,102974.69
2023-12-17T05:50:53.898Z,102975.75
2023-12-17T05:53:27.358Z,102960.91
2023-12-17T05:56:00.944Z,102950.63
2023-12-17T05:58:28.026Z,102950.94
2023-12-17T06:00:57.377Z,102950.41
2023-12-17T06:03:24.714Z,102958.50
2023-12-17T06:05:52.448Z,102951.47
2023-12-17T06:08:19.634Z,102953.09
2023-12-17T06:10:46.856Z,102953.91
2023-12-17T06:13:14.402Z,102947.22
2023-12-17T06:15:41.460Z,102936.09
2023-12-17T06:18:08.731Z,102943.94
2023-12-17T06:20:36.427Z,102936.88
2023-12-17T06:23:04.031Z,102951.47
2023-12-17T06:25:31.095Z,102942.53
2023-12-17T06:27:58.465Z,102947.41
2023-12-17T06:30:25.646Z,102939.13
2023-12-17T06:32:53.034Z,102947.69
2023-12-17T06:35:20.181Z,102942.84
2023-12-17T06:37:47.242Z,102927.72
2023-12-17T06:40:16.852Z,102938.25
2023-12-17T06:42:43.919Z,102947.13
2023-12-17T06:45:11.437Z,102938.97
2023-12-17T06:47:38.661Z,102937.09
2023-12-17T06:50:06.443Z,102941.22
2023-12-17T06:52:33.712Z,102939.56
2023-12-17T06:55:00.915Z,102932.69
2023-12-17T06:57:28.030Z,102925.88
2023-12-17T06:59:55.182Z,102925.66
2023-12-17T07:02:22.343Z,102931.34
2023-12-17T07:04:49.404Z,102922.72
2023-12-17T07:07:16.610Z,102919.09
2023-12-17T07:09:43.733Z,102923.19
2023-12-17T07:12:10.940Z,102921.38
2023-12-17T07:14:38.067Z,102919.75
2023-12-17T07:17:05.165Z,102916.38
2023-12-17T07:19:32.855Z,102938.25
2023-12-17T07:22:00.025Z,102929.41
2023-12-17T07:24:27.365Z,102933.22
2023-12-17T07:26:54.703Z,102929.88
2023-12-17T07:29:22.080Z,102934.78
2023-12-17T07:31:49.244Z,102937.94
2023-12-17T07:34:20.139Z,102924.81
2023-12-17T07:36:48.657Z,102925.13
2023-12-17T07:39:15.847Z,102924.91
2023-12-17T07:41:42.932Z,102935.94
2023-12-17T07:44:11.006Z,102938.69
2023-12-17T07:46:38.750Z,102946.72
2023-12-17T07:49:05.889Z,102951.66
2023-12-17T07:51:33.973Z,102951.13
2023-12-17T07:54:02.213Z,102955.56
2023-12-17T07:56:29.580Z,102947.38
2023-12-17T07:58:56.951Z,102944.09
2023-12-17T08:01:31.119Z,102936.81
2023-12-17T08:03:58.749Z,102940.91
2023-12-17T08:06:25.986Z,102936.66
2023-12-17T08:08:57.237Z,102938.06
2023-12-17T08:11:24.830Z,102945.56
2023-12-17T08:13:53.384Z,102939.78
2023-12-17T08:16:20.553Z,102931.75
2023-12-17T08:18:47.720Z,102926.69
2023-12-17T08:21:15.464Z,102931.25
2023-12-17T08:23:43.607Z,102926.44
2023-12-17T08:26:12.622Z,102935.09
2023-12-17T08:28:40.142Z,102935.59
2023-12-17T08:31:10.787Z,102934.03
2023-12-17T08:33:38.466Z,102948.31
2023-12-17T08:36:06.283Z,102957.50
2023-12-17T08:38:33.552Z,102950.31
2023-12-17T08:41:02.172Z,102952.25
2023-12-17T08:43:29.273Z,102949.25
2023-12-17T08:45:56.411Z,102950.94
2023-12-17T08:48:23.657Z,102960.13
2023-12-17T08:50:50.858Z,102954.19
2023-12-17T08:53:20.624Z,102955.19
2023-12-17T08:55:47.899Z,102945.78
2023-12-17T08:58:15.114Z,102959.59
2023-12-17T09:00:42.281Z,102961.22
2023-12-17T09:03:09.730Z,102954.19
2023-12-17T09:05:36.979Z,102973.88
2023-12-17T09:08:04.234Z,102956.16
2023-12-17T09:10:31.629Z,102953.69
2023-12-17T09:12:58.788Z,102946.16
2023-12-17T09:15:26.400Z,102950.75
2023-12-17T09:17:54.198Z,102942.41
2023-12-17T09:20:21.620Z,102944.06
2023-12-17T09:22:48.815Z,102956.38
2023-12-17T09:25:20.166Z,102952.38
2023-12-17T09:27:47.377Z,102950.75
2023-12-17T09:30:14.762Z,102949.69
2023-12-17T09:32:41.956Z,102951.06
2023-12-17T09:35:11.671Z,102953.28
2023-12-17T09:37:39.759Z,102962.00
2023-12-17T09:40:08.334Z,102958.47
2023-12-17T09:42:36.057Z,102959.53
2023-12-17T09:45:03.498Z,102962.00
2023-12-17T09:47:30.863Z,102947.91
2023-12-17T09:49:58.077Z,102947.59
2023-12-17T09:52:30.497Z,102952.22
2023-12-17T09:54:58.348Z,102937.69
2023-12-17T09:57:26.846Z,102931.72
2023-12-17T09:59:54.037Z,102937.69
2023-12-17T10:02:21.559Z,102947.44
2023-12-17T10:04:48.624Z,102934.50
2023-12-17T10:07:15.830Z,102935.31
2023-12-17T10:09:42.952Z,102934.53
2023-12-17T10:12:10.176Z,102941.56
2023-12-17T10:14:37.905Z,102933.34
2023-12-17T10:17:04.992Z,102936.69
2023-12-17T10:19:32.206Z,102923.13
2023-12-17T10:22:07.044Z,102927.41
2023-12-17T10:24:38.337Z,102923.56
2023-12-17T10:27:19.712Z,102934.38
2023-12-17T10:29:52.165Z,102923.56
2023-12-17T10:32:24.402Z,102919.81
2023-12-17T10:34:53.278Z,102902.97
2023-12-17T10:37:22.596Z,102897.81
2023-12-17T10:39:51.797Z,102897.56
2023-12-17T10:42:20.917Z,102888.41
2023-12-17T10:44:49.692Z,102900.34
2023-12-17T10:47:24.973Z,102898.34
2023-12-17T10:49:55.423Z,102895.66
2023-12-17T10:52:26.122Z,102896.25
2023-12-17T10:54:53.566Z,102895.19
2023-12-17T10:57:24.365Z,102903.78
2023-12-17T10:59:53.783Z,102914.31
2023-12-17T11:02:24.337Z,102914.53
2023-12-17T11:04:51.800Z,102892.03
2023-12-17T11:07:27.087Z,102890.66
2023-12-17T11:10:02.588Z,102893.56
2023-12-17T11:12:30.002Z,102885.47
2023-12-17T11:15:00.442Z,102888.06
2023-12-17T11:17:28.675Z,102885.50
2023-12-17T11:20:05.329Z,102895.25
2023-12-17T11:22:37.567Z,102875.53
2023-12-17T11:25:09.629Z,102876.00
2023-12-17T11:27:37.013Z,102877.41
2023-12-17T11:30:04.892Z,102868.50
2023-12-17T11:32:35.296Z,102876.81
2023-12-17T11:35:03.217Z,102865.47
2023-12-17T11:37:35.954Z,102862.28
2023-12-17T11:40:07.871Z,102852.59
2023-12-17T11:42:43.926Z,102838.56
2023-12-17T11:45:13.827Z,102836.09
2023-12-17T11:47:41.205Z,102839.09
2023-12-17T11:50:13.676Z,102833.66
2023-12-17T11:52:40.918Z,102821.53
2023-12-17T11:55:08.278Z,102813.19
2023-12-17T11:57:35.780Z,102813.81
2023-12-17T12:00:16.103Z,102804.94
2023-12-17T12:02:44.480Z,102796.84
2023-12-17T12:05:12.497Z,102791.22
2023-12-17T12:07:43.377Z,102791.75
2023-12-17T12:10:11.388Z,102788.00
2023-12-17T12:12:41.688Z,102795.59
2023-12-17T12:15:09.580Z,102790.22
2023-12-17T12:17:41.391Z,102782.22
2023-12-17T12:20:14.592Z,102785.44
2023-12-17T12:22:51.316Z,102775.28
2023-12-17T12:25:21.940Z,102773.09
2023-12-17T12:27:52.211Z,102769.47
2023-12-17T12:30:33.710Z,102773.09
2023-12-17T12:33:14.220Z,102775.63
2023-12-17T12:35:42.512Z,102777.34
2023-12-17T12:38:26.480Z,102779.84
2023-12-17T12:40:57.337Z,102778.53
2023-12-17T12:43:25.014Z,102763.38
2023-12-17T12:45:53.461Z,102766.03
2023-12-17T12:48:25.600Z,102778.25
2023-12-17T12:50:53.748Z,102765.25
2023-12-17T12:53:26.371Z,102761.78
2023-12-17T12:55:54.721Z,102772.00
2023-12-17T12:58:24.832Z,102752.31
2023-12-17T13:00:52.562Z,102755.72
2023-12-17T13:03:19.839Z,102762.53
2023-12-17T13:05:47.131Z,102756.06
2023-12-17T13:08:14.875Z,102752.41
2023-12-17T13:10:42.740Z,102750.66
2023-12-17T13:13:12.619Z,102740.09
2023-12-17T13:15:39.759Z,102734.34
2023-12-17T13:18:07.275Z,102735.13
2023-12-17T13:20:36.070Z,102723.25
2023-12-17T13:23:03.765Z,102723.41
2023-12-17T13:25:33.165Z,102726.06
2023-12-17T13:28:08.952Z,102719.81
2023-12-17T13:30:36.749Z,102723.03
2023-12-17T13:33:05.905Z,102720.63
2023-12-17T13:35:44.259Z,102710.09
2023-12-17T13:38:14.608Z,102716.25
2023-12-17T13:40:41.805Z,102721.06
2023-12-17T13:43:11.992Z,102718.34
2023-12-17T13:45:39.202Z,102705.31
2023-12-17T13:48:16.788Z,102711.84
2023-12-17T13:50:47.727Z,102700.72
2023-12-17T13:53:18.886Z,102707.19
2023-12-17T13:56:20.092Z,102715.47
2023-12-17T13:59:00.594Z,102717.00
2023-12-17T14:01:33.399Z,102715.41
2023-12-17T14:04:01.842Z,102715.53
2023-12-17T14:09:09.944Z,102718.38
2023-12-17T14:11:40.063Z,102700.81
2023-12-17T14:14:35.390Z,102687.75
2023-12-17T14:17:03.046Z,102700.19
2023-12-17T14:19:35.964Z,102706.47
2023-12-17T14:22:05.653Z,102698.88
2023-12-17T14:24:32.919Z,102695.34
2023-12-17T14:27:00.143Z,102686.44
2023-12-17T14:29:27.360Z,102680.84
2023-12-17T14:31:58.825Z,102672.00
2023-12-17T14:34:26.357Z,102676.72
2023-12-17T14:36:53.625Z,102667.19
2023-12-17T14:39:22.308Z,102681.69
2023-12-17T14:41:49.565Z,102681.00
2023-12-17T14:44:16.766Z,102678.22
2023-12-17T14:46:43.883Z,102675.97
2023-12-17T14:49:11.339Z,102674.53
2023-12-17T14:51:38.525Z,102686.28
2023-12-17T14:54:05.792Z,102682.47
2023-12-17T14:56:33.190Z,102685.44
2023-12-17T14:59:04.006Z,102673.19
2023-12-17T15:01:35.403Z,102676.63
2023-12-17T15:04:04.418Z,102668.81
2023-12-17T15:06:32.338Z,102664.13
2023-12-17T15:09:00.809Z,102663.81
2023-12-17T15:11:29.692Z,102659.72
2023-12-17T15:13:58.505Z,102658.06
2023-12-17T15:16:28.110Z,102653.97
2023-12-17T15:18:55.434Z,102645.25
2023-12-17T15:21:22.660Z,102634.94
2023-12-17T15:23:49.877Z,102630.28
2023-12-17T15:26:17.662Z,102614.38
2023-12-17T15:28:44.762Z,102612.75
2023-12-17T15:31:15.639Z,102622.41
2023-12-17T15:33:43.302Z,102609.44
2023-12-17T15:36:10.779Z,102620.69
2023-12-17T15:38:40.241Z,102628.41
2023-12-17T15:41:27.973Z,102621.50
2023-12-17T15:43:55.173Z,102622.75
2023-12-17T15:46:24.193Z,102611.63
2023-12-17T15:48:51.652Z,102619.06
2023-12-17T15:51:23.817Z,102611.28
2023-12-17T15:53:52.112Z,102592.84
2023-12-17T15:56:20.038Z,102597.78
2023-12-17T15:58:48.431Z,102600.47
2023-12-17T16:01:15.800Z,102593.44
2023-12-17T16:03:43.189Z,102587.47
2023-12-17T16:06:11.730Z,102596.59
2023-12-17T16:08:39.836Z,102586.91
2023-12-17T16:11:12.559Z,102593.84
2023-12-17T16:13:44.876Z,102604.13
2023-12-17T16:16:23.483Z,102589.28
2023-12-17T16:18:51.073Z,102601.34
2023-12-17T16:21:18.924Z,102600.78
2023-12-17T16:23:46.233Z,102593.00
2023-12-17T16:26:14.021Z,102590.00
2023-12-17T16:28:41.175Z,102596.72
2023-12-17T16:31:08.498Z,102585.69
2023-12-17T16:33:41.162Z,102581.63
2023-12-17T16:36:08.697Z,102580.22
2023-12-17T16:38:35.821Z,102578.56
2023-12-17T16:41:02.996Z,102562.84
2023-12-17T16:43:31.250Z,102581.44
2023-12-17T16:46:07.644Z,102564.50
2023-12-17T16:48:35.101Z,102563.44
2023-12-17T16:51:02.329Z,102558.59
2023-12-17T16:53:29.529Z,102550.28
2023-12-17T16:55:56.650Z,102540.56
2023-12-17T16:58:23.720Z,102548.34
2023-12-17T17:00:50.979Z,102555.47
2023-12-17T17:03:19.002Z,102569.28
2023-12-17T17:05:46.299Z,102583.78
2023-12-17T17:08:13.392Z,102597.34
2023-12-17T17:10:41.264Z,102608.41
2023-12-17T17:13:08.490Z,102608.91
2023-12-17T17:15:35.914Z,102607.03
2023-12-17T17:18:04.208Z,102599.34
2023-12-17T17:20:32.455Z,102600.41
2023-12-17T17:22:59.641Z,102591.78
2023-12-17T17:25:26.775Z,102605.22
2023-12-17T17:27:53.995Z,102602.44
2023-12-17T17:30:21.448Z,102602.44
2023-12-17T17:33:04.072Z,102603.72
2023-12-17T17:35:33.035Z,102604.31
2023-12-17T17:38:17.940Z,102607.59
2023-12-17T17:40:48.175Z,102599.75
2023-12-17T17:43:15.293Z,102594.59
2023-12-17T17:45:42.499Z,102605.22
2023-12-17T17:48:09.775Z,102598.75
2023-12-17T17:50:37.428Z,102595.59
2023-12-17T17:53:05.018Z,102594.19
2023-12-17T17:55:33.611Z,102583.63
2023-12-17T17:58:00.813Z,102583.03
2023-12-17T18:00:28.195Z,102586.13
2023-12-17T18:02:56.033Z,102594.09
2023-12-17T18:05:26.186Z,102601.59
2023-12-17T18:07:55.870Z,102609.06
2023-12-17T18:10:25.989Z,102606.16
2023-12-17T18:12:53.268Z,102609.06
2023-12-17T18:15:20.519Z,102611.66
2023-12-17T18:17:48.061Z,102610.63
2023-12-17T18:20:17.906Z,102605.97
2023-12-17T18:22:45.244Z,102609.47
2023-12-17T18:25:12.657Z,102610.06
2023-12-17T18:27:39.792Z,102610.88
2023-12-17T18:30:11.404Z,102616.00
2023-12-17T18:32:40.206Z,102618.41
2023-12-17T18:35:08.298Z,102617.03
2023-12-17T18:37:37.393Z,102610.56
2023-12-17T18:40:04.957Z,102622.97
2023-12-17T18:42:32.076Z,102624.00
2023-12-17T18:45:15.486Z,102614.53
2023-12-17T18:47:43.002Z,102610.56
2023-12-17T18:50:11.210Z,102628.25
2023-12-17T18:52:53.252Z,102615.63
2023-12-17T18:55:22.921Z,102619.81
2023-12-17T18:57:50.492Z,102625.56
2023-12-17T19:00:33.027Z,102627.97
2023-12-17T19:03:00.537Z,102623.34
2023-12-17T19:05:28.007Z,102625.78
2023-12-17T19:08:09.508Z,102616.09
2023-12-17T19:10:45.957Z,102618.19
2023-12-17T19:13:14.282Z,102625.44
2023-12-17T19:15:43.677Z,102620.88
2023-12-17T19:18:14.814Z,102618.59
2023-12-17T19:20:43.061Z,102621.16
2023-12-17T19:23:10.652Z,102646.16
2023-12-17T19:25:37.908Z,102632.16
2023-12-17T19:28:05.465Z,102634.94
2023-12-17T19:30:32.941Z,102625.00
2023-12-17T19:33:03.434Z,102615.44
2023-12-17T19:35:32.575Z,102626.19
2023-12-17T19:38:05.016Z,102619.50
2023-12-17T19:40:32.548Z,102623.50
2023-12-17T19:43:02.630Z,102622.19
2023-12-17T19:45:30.598Z,102635.31
2023-12-17T19:47:57.952Z,102636.00
2023-12-17T19:50:25.551Z,102637.28
2023-12-17T19:52:52.962Z,102634.00
2023-12-17T19:55:20.118Z,102627.88
2023-12-17T19:57:47.471Z,102623.56
2023-12-17T20:00:15.683Z,102623.09
2023-12-17T20:02:43.473Z,102622.59
2023-12-17T20:05:11.089Z,102615.63
2023-12-17T20:07:57.719Z,102620.19
2023-12-17T20:10:34.498Z,102618.03
2023-12-17T20:13:02.532Z,102631.75
2023-12-17T20:15:29.681Z,102634.53
2023-12-17T20:17:57.117Z,102645.63
2023-12-17T20:20:25.369Z,102643.97
2023-12-17T20:22:52.848Z,102642.44
2023-12-17T20:25:20.112Z,102660.13
2023-12-17T20:27:47.768Z,102650.50
2023-12-17T20:30:17.040Z,102649.22
2023-12-17T20:33:25.529Z,102650.88
2023-12-17T20:36:02.273Z,102649.22
2023-12-17T20:38:29.427Z,102652.28
2023-12-17T20:40:56.787Z,102651.09
2023-12-17T20:43:23.882Z,102657.53
2023-12-17T20:45:51.018Z,102665.81
2023-12-17T20:48:18.327Z,102655.66
2023-12-17T20:50:45.545Z,102650.88
2023-12-17T20:53:13.011Z,102636.13
2023-12-17T20:55:40.298Z,102635.78
2023-12-17T20:58:14.991Z,102619.88
2023-12-17T21:00:42.178Z,102625.09
2023-12-17T21:03:10.568Z,102622.47
2023-12-17T21:05:38.048Z,102622.31
2023-12-17T21:08:05.507Z,102624.94
2023-12-17T21:10:35.753Z,102619.88
2023-12-17T21:13:02.911Z,102609.78
2023-12-17T21:15:30.085Z,102618.00
2023-12-17T21:17:58.118Z,102613.22
2023-12-17T21:20:26.983Z,102624.44
2023-12-17T21:22:54.190Z,102617.41
2023-12-17T21:25:21.539Z,102621.75
2023-12-17T21:27:48.675Z,102629.94
2023-12-17T21:30:15.975Z,102637.50
2023-12-17T21:32:43.397Z,102621.03
2023-12-17T21:35:10.711Z,102636.34
2023-12-17T21:37:37.937Z,102636.97
2023-12-17T21:40:05.524Z,102627.13
2023-12-17T21:42:40.080Z,102622.31
2023-12-17T21:45:10.563Z,102625.25
2023-12-17T21:47:37.785Z,102618.50
2023-12-17T21:50:05.385Z,102620.69
2023-12-17T21:52:33.411Z,102605.38
2023-12-17T21:55:01.714Z,102614.50
2023-12-17T21:57:40.531Z,102612.03
2023-12-17T22:00:22.584Z,102599.75
2023-12-17T22:02:52.592Z,102604.56
2023-12-17T22:05:21.010Z,102617.75
2023-12-17T22:07:50.730Z,102603.84
2023-12-17T22:10:18.098Z,102614.91
2023-12-17T22:12:45.571Z,102605.13
2023-12-17T22:15:12.887Z,102603.03
2023-12-17T22:17:41.225Z,102611.16
2023-12-17T22:20:11.728Z,102605.78
2023-12-17T22:22:39.100Z,102610.59
2023-12-17T22:25:06.664Z,102614.84
2023-12-17T22:27:34.113Z,102610.50
2023-12-17T22:30:01.681Z,102616.47
2023-12-17T22:32:28.885Z,102617.94
2023-12-17T22:34:56.222Z,102621.22
2023-12-17T22:37:23.352Z,102614.66
2023-12-17T22:39:50.465Z,102625.78
2023-12-17T22:42:17.757Z,102642.50
2023-12-17T22:44:45.255Z,102622.50
2023-12-17T22:47:12.592Z,102632.81
2023-12-17T22:49:39.817Z,102627.78
2023-12-17T22:52:07.151Z,102625.78
2023-12-17T22:54:37.304Z,102625.78
2023-12-17T22:57:05.129Z,102644.44
2023-12-17T22:59:32.540Z,102644.72
2023-12-17T23:01:59.689Z,102645.66
2023-12-17T23:04:26.907Z,102645.66
2023-12-17T23:06:54.014Z,102643.88
2023-12-17T23:09:21.348Z,102640.94
2023-12-17T23:11:49.118Z,102643.78
2023-12-17T23:14:18.005Z,102643.78
2023-12-17T23:16:45.142Z,102647.44
2023-12-17T23:19:12.569Z,102640.75
2023-12-17T23:21:39.767Z,102648.47
2023-12-17T23:24:08.002Z,102651.41
2023-12-17T23:26:38.759Z,102637.94
2023-12-17T23:29:05.973Z,102640.63
2023-12-17T23:31:33.139Z,102639.81
2023-12-17T23:34:00.673Z,102643.88
2023-12-17T23:36:27.927Z,102642.16
2023-12-17T23:38:55.017Z,102633.84
2023-12-17T23:41:22.077Z,102643.09
2023-12-17T23:43:49.185Z,102632.81
2023-12-17T23:46:18.440Z,102620.53
2023-12-17T23:48:45.583Z,102634.91
2023-12-17T23:51:12.949Z,102623.31
2023-12-17T23:53:40.076Z,102624.72
2023-12-17T23:56:07.742Z,102610.88
2023-12-17T23:58:35.056Z,102609.06
